WetterOnline ( http://www.wetteronline.de )

Wetter aktuell Hamburg

Aktuelles Wetter: Hamburg/Fuhlsbüttel (15m)

6-stündlich | Neueste Meldungen
Ortszeit Temperatur Wetter
Di, 22.01. 7:00 -0.6° C bewölkt
Di, 22.01. 1:00 -0.6° C Nebel
Mo, 21.01. 19:00 -0.6° C bewölkt
Mo, 21.01. 13:00 -1.9° C bedeckt
Mo, 21.01. 7:00 -5.9° C fast wolkenlos
Mo, 21.01. 1:00 -4.6° C bedeckt
So, 20.01. 19:00 -3.8° C Dunst
So, 20.01. 13:00 -0.4° C fast wolkenlos
Ortszeit Temperatur Wetter
Di, 22.01. 7:20 -1° C leicht bewölkt
Di, 22.01. 7:00 -0.6° C bewölkt
Di, 22.01. 6:50 -0.6° C -
Di, 22.01. 6:40 -0.6° C -
Di, 22.01. 6:30 -0.4° C -
Di, 22.01. 6:20 -0.4° C -
Di, 22.01. 6:00 -0.1° C bedeckt
Di, 22.01. 5:30 0.1° C -
Di, 22.01. 5:00 -0.1° C bedeckt
Di, 22.01. 4:30 -0.4° C -
Di, 22.01. 4:00 -0.6° C Dunst
Ortszeit Relative Feuchte Sichtweite
Di, 22.01. 7:00 86% 7 km
Di, 22.01. 1:00 97% 0.8 km
Mo, 21.01. 19:00 82% 12 km
Mo, 21.01. 13:00 77% 8 km
Mo, 21.01. 7:00 90% 6 km
Mo, 21.01. 1:00 93% 2.2 km
So, 20.01. 19:00 93% 2.5 km
So, 20.01. 13:00 78% 7 km
Ortszeit Relative Feuchte Sichtweite
Di, 22.01. 7:20 86% 7 km
Di, 22.01. 7:00 86% 7 km
Di, 22.01. 6:50 86% -
Di, 22.01. 6:40 86% -
Di, 22.01. 6:30 86% 4.8 km
Di, 22.01. 6:20 86% -
Di, 22.01. 6:00 90% 4.5 km
Di, 22.01. 5:30 92% 3.5 km
Di, 22.01. 5:00 94% 4.5 km
Di, 22.01. 4:30 96% 3.4 km
Di, 22.01. 4:00 96% 3.0 km
Ortszeit Niederschlagsmenge Niederschlagsart
Di, 22.01. 7:00 0.4 l/m2 in 12 Std. Schauer
Di, 22.01. 1:00 0.3 l/m2 in 6 Std. Schauer
Mo, 21.01. 19:00 0.1 l/m2 in 12 Std. -
Mo, 21.01. 13:00 0.1 l/m2 in 6 Std. Schnee
Mo, 21.01. 7:00 0.1 l/m2 in 12 Std. -
Mo, 21.01. 1:00 0.1 l/m2 in 6 Std. Schnee
So, 20.01. 19:00 0.0 l/m2 in 12 Std. -
So, 20.01. 13:00 0.0 l/m2 in 6 Std. -
Ortszeit Niederschlagsmenge Niederschlagsart
Di, 22.01. 7:20 keine Meldung -
Di, 22.01. 7:00 0.0 l/m2 in 1 Std. Schauer
Di, 22.01. 6:50 keine Meldung -
Di, 22.01. 6:40 keine Meldung -
Di, 22.01. 6:30 0.0 l/m2 in 1 Std. -
Di, 22.01. 6:20 keine Meldung -
Di, 22.01. 6:00 0.0 l/m2 in 1 Std. -
Di, 22.01. 5:30 0.0 l/m2 in 1 Std. -
Di, 22.01. 5:00 0.0 l/m2 in 1 Std. -
Di, 22.01. 4:30 0.0 l/m2 in 1 Std. -
Di, 22.01. 4:00 0.0 l/m2 in 1 Std. Schauer
Ortszeit Stärke Spitze Richtung
km/h Bft. km/h Grad Sektor
Di, 22.01. 7:00 11 2 25 170° S
Di, 22.01. 1:00 13 3 26 210° SW
Mo, 21.01. 19:00 7 2 25 230° SW
Mo, 21.01. 13:00 14 3 22 220° SW
Mo, 21.01. 7:00 9 2 19 180° S
Mo, 21.01. 1:00 6 1 17 170° S
So, 20.01. 19:00 11 2 18 140° SO
So, 20.01. 13:00 6 1 11 110° O
Ortszeit Stärke Spitze Richtung
km/h Bft. km/h Grad Sektor
Di, 22.01. 7:20 11 2 - 160° S
Di, 22.01. 7:00 11 2 18 170° S
Di, 22.01. 6:50 11 2 - 170° S
Di, 22.01. 6:40 13 3 - 170° S
Di, 22.01. 6:30 13 3 19 170° S
Di, 22.01. 6:20 13 3 - 170° S
Di, 22.01. 6:00 13 3 17 160° S
Di, 22.01. 5:30 7 2 11 150° SO
Di, 22.01. 5:00 7 2 25 170° S
Di, 22.01. 4:30 15 3 26 200° S
Di, 22.01. 4:00 9 2 19 220° SW
Ortszeit Untergrenze Bedeckung Gattung
total tief tief mittel hoch
Di, 22.01. 7:00 270 m 7/8 7/8 St - -
Di, 22.01. 1:00 30 m 8/8 8/8 St - -
Mo, 21.01. 19:00 270 m 7/8 7/8 St - -
Mo, 21.01. 13:00 450 m 8/8 7/8 Sc - -
Mo, 21.01. 7:00 120 m 2/8 1/8 St Ac -
Mo, 21.01. 1:00 30 m 8/8 8/8 St - -
So, 20.01. 19:00 30 m 8/8 7/8 St - -
So, 20.01. 13:00 120 m 2/8 1/8 St Ac -
Ortszeit Bedeckungsgrad in Achtel und Wolkenuntergrenze
Di, 22.01. 7:20 3-4(300m)
Di, 22.01. 7:00 7(270m)
Di, 22.01. 6:50 -
Di, 22.01. 6:40 -
Di, 22.01. 6:30 -
Di, 22.01. 6:20 -
Di, 22.01. 6:00 7(210m)
Di, 22.01. 5:30 -
Di, 22.01. 5:00 7(180m)
Di, 22.01. 4:30 -
Di, 22.01. 4:00 8(120m)
Ortszeit Luftdruck NN (hPa) Tendenz (hPa in 3 Std.)
Di, 22.01. 7:00 1012 - 1,6
Di, 22.01. 1:00 1016 - 1,1
Mo, 21.01. 19:00 1018 - 0,7
Mo, 21.01. 13:00 1020 - 1,4
Mo, 21.01. 7:00 1022 - 1,1
Mo, 21.01. 1:00 1024 + 0,4
So, 20.01. 19:00 1022 + 1,0
So, 20.01. 13:00 1020 + 0,7
Ortszeit Luftdruck NN (hPa) Tendenz (hPa in 3 Std.)
Di, 22.01. 7:20 1012 keine Meldung
Di, 22.01. 7:00 1012 - 1,6
Di, 22.01. 6:50 1012 keine Meldung
Di, 22.01. 6:40 1012 keine Meldung
Di, 22.01. 6:30 1012 - 2,0
Di, 22.01. 6:20 1012 keine Meldung
Di, 22.01. 6:00 1013 - 2,3
Di, 22.01. 5:30 1013 - 2,3
Di, 22.01. 5:00 1013 - 2,4
Di, 22.01. 4:30 1014 - 2,3
Di, 22.01. 4:00 1014 - 2,1
Ortszeit Schneehöhe (cm)
Di, 22.01. 7:00 3
Di, 22.01. 1:00 3
Mo, 21.01. 19:00 2
Mo, 21.01. 13:00 2
Mo, 21.01. 7:00 2
Mo, 21.01. 1:00 2
So, 20.01. 19:00 2
So, 20.01. 13:00 2
Ortszeit Schneehöhe (cm)
Di, 22.01. 7:20 -
Di, 22.01. 7:00 3
Di, 22.01. 6:50 -
Di, 22.01. 6:40 -
Di, 22.01. 6:30 -
Di, 22.01. 6:20 -
Di, 22.01. 6:00 -
Di, 22.01. 5:30 -
Di, 22.01. 5:00 -
Di, 22.01. 4:30 -
Di, 22.01. 4:00 -
Link zu dieser Seite / Seite empfehlen

Das Wetter in ...